createdAt,value
2022-08-29T00:01:13.353Z,63.61
2022-08-29T00:03:41.127Z,63.57
2022-08-29T00:06:10.805Z,63.10
2022-08-29T00:08:38.026Z,63.04
2022-08-29T00:11:06.824Z,62.88
2022-08-29T00:13:50.087Z,63.23
2022-08-29T00:16:18.970Z,63.56
2022-08-29T00:18:46.232Z,63.25
2022-08-29T00:21:13.449Z,64.11
2022-08-29T00:23:41.003Z,64.05
2022-08-29T00:26:08.230Z,63.76
2022-08-29T00:28:35.749Z,63.66
2022-08-29T00:31:03.416Z,63.51
2022-08-29T00:33:30.711Z,64.80
2022-08-29T00:35:58.024Z,62.98
2022-08-29T00:38:27.997Z,62.73
2022-08-29T00:40:56.709Z,63.42
2022-08-29T00:43:25.625Z,63.11
2022-08-29T00:45:59.298Z,64.25
2022-08-29T00:48:26.623Z,63.42
2022-08-29T00:51:00.945Z,63.19
2022-08-29T00:53:29.817Z,63.80
2022-08-29T00:55:57.297Z,63.85
2022-08-29T00:58:26.640Z,63.51
2022-08-29T01:00:54.182Z,64.50
2022-08-29T01:03:21.779Z,63.23
2022-08-29T01:05:49.052Z,62.99
2022-08-29T01:08:16.367Z,62.71
2022-08-29T01:11:02.887Z,64.14
2022-08-29T01:13:34.660Z,63.99
2022-08-29T01:16:04.171Z,65.53
2022-08-29T01:18:32.447Z,64.25
2022-08-29T01:21:05.689Z,63.87
2022-08-29T01:23:40.574Z,63.93
2022-08-29T01:26:08.385Z,64.06
2022-08-29T01:28:37.295Z,63.00
2022-08-29T01:31:09.718Z,63.90
2022-08-29T01:33:43.528Z,63.33
2022-08-29T01:36:12.331Z,64.25
2022-08-29T01:38:39.818Z,65.65
2022-08-29T01:41:07.180Z,64.91
2022-08-29T01:43:38.666Z,64.31
2022-08-29T01:46:06.274Z,63.26
2022-08-29T01:48:33.518Z,64.51
2022-08-29T01:51:00.753Z,64.24
2022-08-29T01:53:28.276Z,64.21
2022-08-29T01:55:55.535Z,63.97
2022-08-29T01:58:22.789Z,64.01
2022-08-29T02:00:50.583Z,65.20
2022-08-29T02:03:18.798Z,64.77
2022-08-29T02:05:47.645Z,64.88
2022-08-29T02:08:15.085Z,66.48
2022-08-29T02:10:42.671Z,65.57
2022-08-29T02:13:10.435Z,65.66
2022-08-29T02:15:37.618Z,65.35
2022-08-29T02:18:05.258Z,66.21
2022-08-29T02:20:32.779Z,66.25
2022-08-29T02:23:00.367Z,67.12
2022-08-29T02:25:43.786Z,67.49
2022-08-29T02:28:15.279Z,67.53
2022-08-29T02:30:45.196Z,67.41
2022-08-29T02:33:17.592Z,68.04
2022-08-29T02:35:48.296Z,67.40
2022-08-29T02:38:16.232Z,67.76
2022-08-29T02:40:44.413Z,67.29
2022-08-29T02:43:12.859Z,67.45
2022-08-29T02:45:41.426Z,67.29
2022-08-29T02:48:09.509Z,67.26
2022-08-29T02:50:42.999Z,67.57
2022-08-29T02:53:11.643Z,67.81
2022-08-29T02:55:39.895Z,65.86
2022-08-29T02:58:07.649Z,68.66
2022-08-29T03:00:35.986Z,66.98
2022-08-29T03:03:04.818Z,67.83
2022-08-29T03:05:34.974Z,67.62
2022-08-29T03:08:05.638Z,70.06
2022-08-29T03:10:34.079Z,68.51
2022-08-29T03:13:01.860Z,67.90
2022-08-29T03:15:29.284Z,67.32
2022-08-29T03:17:57.143Z,66.06
2022-08-29T03:20:24.883Z,66.15
2022-08-29T03:22:54.197Z,66.78
2022-08-29T03:25:23.804Z,66.74
2022-08-29T03:27:52.959Z,67.49
2022-08-29T03:30:20.995Z,66.82
2022-08-29T03:32:51.766Z,67.08
2022-08-29T03:35:20.081Z,68.11
2022-08-29T03:37:47.567Z,68.02
2022-08-29T03:40:16.910Z,67.00
2022-08-29T03:42:44.617Z,67.67
2022-08-29T03:45:15.038Z,67.84
2022-08-29T03:47:42.780Z,66.31
2022-08-29T03:50:13.144Z,69.94
2022-08-29T03:52:43.383Z,69.60
2022-08-29T03:55:14.376Z,69.71
2022-08-29T03:57:42.115Z,69.31
2022-08-29T04:00:16.140Z,68.68
2022-08-29T04:02:46.639Z,69.00
2022-08-29T04:05:16.837Z,69.72
2022-08-29T04:07:51.085Z,70.14
2022-08-29T04:10:25.924Z,69.37
2022-08-29T04:12:55.115Z,68.34
2022-08-29T04:15:24.423Z,68.13
2022-08-29T04:17:57.652Z,67.32
2022-08-29T04:20:28.836Z,66.79
2022-08-29T04:22:57.717Z,67.26
2022-08-29T04:25:27.866Z,66.71
2022-08-29T04:27:56.244Z,67.05
2022-08-29T04:30:25.473Z,65.81
2022-08-29T04:32:52.952Z,65.96
2022-08-29T04:35:21.209Z,66.07
2022-08-29T04:37:49.363Z,66.94
2022-08-29T04:40:19.457Z,66.10
2022-08-29T04:42:47.399Z,67.13
2022-08-29T04:45:18.000Z,65.97
2022-08-29T04:47:46.053Z,66.91
2022-08-29T04:50:16.470Z,66.89
2022-08-29T04:52:44.108Z,67.01
2022-08-29T04:55:12.329Z,67.01
2022-08-29T04:57:40.180Z,66.78
2022-08-29T05:00:13.022Z,66.99
2022-08-29T05:02:42.295Z,67.06
2022-08-29T05:05:11.483Z,67.72
2022-08-29T05:07:38.972Z,67.73
2022-08-29T05:10:13.661Z,67.51
2022-08-29T05:12:41.242Z,66.95
2022-08-29T05:15:10.200Z,67.33
2022-08-29T05:17:37.645Z,67.01
2022-08-29T05:20:07.416Z,65.98
2022-08-29T05:22:35.326Z,65.66
2022-08-29T05:25:04.968Z,67.01
2022-08-29T05:27:32.653Z,66.20
2022-08-29T05:30:01.283Z,66.76
2022-08-29T05:32:28.702Z,66.69
2022-08-29T05:34:56.162Z,66.65
2022-08-29T05:37:23.889Z,65.68
2022-08-29T05:39:51.655Z,66.54
2022-08-29T05:42:22.223Z,66.65
2022-08-29T05:44:50.334Z,66.12
2022-08-29T05:47:19.158Z,66.30
2022-08-29T05:49:48.011Z,66.91
2022-08-29T05:52:18.089Z,65.40
2022-08-29T05:54:46.008Z,65.23
2022-08-29T05:57:19.152Z,65.19
2022-08-29T05:59:49.053Z,63.85
2022-08-29T06:02:17.950Z,65.08
2022-08-29T06:04:46.055Z,66.46
2022-08-29T06:07:13.724Z,64.14
2022-08-29T06:09:42.099Z,63.57
2022-08-29T06:12:11.273Z,64.03
2022-08-29T06:14:38.756Z,64.69
2022-08-29T06:17:08.631Z,64.20
2022-08-29T06:19:39.595Z,63.74
2022-08-29T06:22:09.889Z,64.51
2022-08-29T06:24:39.324Z,65.29
2022-08-29T06:27:07.163Z,63.68
2022-08-29T06:29:43.278Z,63.97
2022-08-29T06:32:12.934Z,63.30
2022-08-29T06:34:40.506Z,63.34
2022-08-29T06:37:07.944Z,62.98
2022-08-29T06:39:35.775Z,63.40
2022-08-29T06:42:03.322Z,63.55
2022-08-29T06:44:31.980Z,64.13
2022-08-29T06:46:59.970Z,63.10
2022-08-29T06:49:27.876Z,62.86
2022-08-29T06:51:58.223Z,63.07
2022-08-29T06:54:28.005Z,62.92
2022-08-29T06:56:57.026Z,62.81
2022-08-29T06:59:24.933Z,62.41
2022-08-29T07:01:54.444Z,62.15
2022-08-29T07:04:21.909Z,62.23
2022-08-29T07:06:50.590Z,62.06
2022-08-29T07:09:18.413Z,63.51
2022-08-29T07:11:45.881Z,61.62
2022-08-29T07:14:13.606Z,62.12
2022-08-29T07:16:41.742Z,61.94
2022-08-29T07:19:10.361Z,61.44
2022-08-29T07:21:38.842Z,61.89
2022-08-29T07:24:07.282Z,61.35
2022-08-29T07:26:38.946Z,61.34
2022-08-29T07:29:11.143Z,62.48
2022-08-29T07:31:39.277Z,62.32
2022-08-29T07:34:07.856Z,61.83
2022-08-29T07:36:36.280Z,62.74
2022-08-29T07:39:07.106Z,62.25
2022-08-29T07:41:35.085Z,60.55
2022-08-29T07:44:02.777Z,60.95
2022-08-29T07:46:31.578Z,61.45
2022-08-29T07:48:59.966Z,60.12
2022-08-29T07:51:27.997Z,59.14
2022-08-29T07:53:56.793Z,59.17
2022-08-29T07:56:28.719Z,59.05
2022-08-29T07:58:57.361Z,58.87
2022-08-29T08:01:26.240Z,57.85
2022-08-29T08:03:54.365Z,57.57
2022-08-29T08:06:24.071Z,58.22
2022-08-29T08:08:56.420Z,57.84
2022-08-29T08:11:25.121Z,57.85
2022-08-29T08:13:54.143Z,57.95
2022-08-29T08:16:24.398Z,59.06
2022-08-29T08:18:52.689Z,58.01
2022-08-29T08:21:20.174Z,57.31
2022-08-29T08:23:48.414Z,57.26
2022-08-29T08:26:16.468Z,58.07
2022-08-29T08:28:44.341Z,56.65
2022-08-29T08:31:14.282Z,57.30
2022-08-29T08:33:42.795Z,58.55
2022-08-29T08:36:17.800Z,57.21
2022-08-29T08:38:45.897Z,55.77
2022-08-29T08:41:17.897Z,56.13
2022-08-29T08:43:57.213Z,57.30
2022-08-29T08:46:36.597Z,57.26
2022-08-29T08:49:08.628Z,59.00
2022-08-29T08:51:39.222Z,58.02
2022-08-29T08:54:12.328Z,57.17
2022-08-29T08:56:48.076Z,57.42
2022-08-29T08:59:31.552Z,56.51
2022-08-29T09:02:07.153Z,55.85
2022-08-29T09:04:58.513Z,56.21
2022-08-29T09:07:46.000Z,54.33
2022-08-29T09:10:58.737Z,54.80
2022-08-29T09:13:43.922Z,55.65
2022-08-29T09:16:25.236Z,54.00
2022-08-29T09:18:54.206Z,53.43
2022-08-29T09:21:40.696Z,54.61
2022-08-29T09:24:39.385Z,54.11
2022-08-29T09:27:09.070Z,54.11
2022-08-29T09:29:37.458Z,54.55
2022-08-29T09:32:11.187Z,54.58
2022-08-29T09:35:10.200Z,53.74
2022-08-29T09:37:35.021Z,53.22
2022-08-29T09:40:11.093Z,53.20
2022-08-29T09:42:41.871Z,52.99
2022-08-29T09:45:21.984Z,53.09
2022-08-29T09:47:49.668Z,53.42
2022-08-29T09:50:17.612Z,53.31
2022-08-29T09:52:58.947Z,53.63
2022-08-29T09:55:37.365Z,52.79
2022-08-29T09:58:18.386Z,52.86
2022-08-29T10:01:07.479Z,52.88
2022-08-29T10:03:40.519Z,52.73
2022-08-29T10:06:25.705Z,53.04
2022-08-29T10:09:06.938Z,53.37
2022-08-29T10:11:56.509Z,53.03
2022-08-29T10:14:37.444Z,52.88
2022-08-29T10:17:47.066Z,51.88
2022-08-29T10:20:15.259Z,51.38
2022-08-29T10:22:47.533Z,51.00
2022-08-29T10:25:16.266Z,51.76
2022-08-29T10:27:51.754Z,51.75
2022-08-29T10:31:04.655Z,49.65
2022-08-29T10:33:47.332Z,50.31
2022-08-29T10:36:23.167Z,49.89
2022-08-29T10:38:51.227Z,49.93
2022-08-29T10:41:31.682Z,50.65
2022-08-29T10:47:11.290Z,49.96
2022-08-29T10:50:21.886Z,49.37
2022-08-29T10:53:14.675Z,48.89
2022-08-29T10:56:00.235Z,48.76
2022-08-29T10:58:58.082Z,48.81
2022-08-29T11:01:31.278Z,48.60
2022-08-29T11:04:08.589Z,48.43
2022-08-29T11:06:43.349Z,50.31
2022-08-29T11:09:16.519Z,48.00
2022-08-29T11:11:59.133Z,47.56
2022-08-29T11:14:33.453Z,47.11
2022-08-29T11:17:04.855Z,47.53
2022-08-29T11:19:56.756Z,47.12
2022-08-29T11:22:34.539Z,46.47
2022-08-29T11:25:14.868Z,46.90
2022-08-29T11:28:10.115Z,45.85
2022-08-29T11:31:06.604Z,45.23
2022-08-29T11:33:47.667Z,44.88
2022-08-29T11:36:46.993Z,44.82
2022-08-29T11:39:48.146Z,45.15
2022-08-29T11:42:49.950Z,45.41
2022-08-29T11:45:06.912Z,46.26
2022-08-29T11:47:40.772Z,44.87
2022-08-29T11:50:14.793Z,45.42
2022-08-29T11:53:08.806Z,44.35
2022-08-29T11:55:42.230Z,44.38
2022-08-29T11:58:15.829Z,45.29
2022-08-29T12:00:46.673Z,44.43
2022-08-29T12:03:33.149Z,43.99
2022-08-29T12:06:52.642Z,42.93
2022-08-29T12:09:31.930Z,43.30
2022-08-29T12:11:59.552Z,42.91
2022-08-29T12:14:39.600Z,42.49
2022-08-29T12:17:17.439Z,42.08
2022-08-29T12:20:00.849Z,41.70
2022-08-29T12:22:54.332Z,41.49
2022-08-29T12:25:28.456Z,40.19
2022-08-29T12:28:06.041Z,39.85
2022-08-29T12:30:42.789Z,40.85
2022-08-29T12:33:21.694Z,40.71
2022-08-29T12:36:14.599Z,40.69
2022-08-29T12:39:09.561Z,39.23
2022-08-29T12:41:55.780Z,39.15
2022-08-29T12:44:36.683Z,38.43
2022-08-29T12:47:13.695Z,38.42
2022-08-29T12:49:48.520Z,39.04
2022-08-29T12:52:27.312Z,38.29
2022-08-29T12:54:57.371Z,37.69
2022-08-29T12:57:30.154Z,38.48
2022-08-29T12:59:58.215Z,37.59
2022-08-29T13:02:35.791Z,37.29
2022-08-29T13:05:26.865Z,37.03
2022-08-29T13:08:09.615Z,38.55
2022-08-29T13:10:51.924Z,39.54
2022-08-29T13:13:22.783Z,39.44
2022-08-29T13:15:51.816Z,38.23
2022-08-29T13:18:19.803Z,37.87
2022-08-29T13:21:01.531Z,38.76
2022-08-29T13:23:35.376Z,38.41
2022-08-29T13:26:09.252Z,38.62
2022-08-29T13:28:43.481Z,38.03
2022-08-29T13:31:17.940Z,37.77
2022-08-29T13:33:48.102Z,37.11
2022-08-29T13:36:28.141Z,36.77
2022-08-29T13:39:18.045Z,37.54
2022-08-29T13:41:52.700Z,38.46
2022-08-29T13:44:51.233Z,37.76
2022-08-29T13:47:39.056Z,37.40
2022-08-29T13:50:10.309Z,37.54
2022-08-29T13:52:38.713Z,37.64
2022-08-29T13:55:08.261Z,37.64
2022-08-29T13:57:36.292Z,37.21
2022-08-29T14:00:06.523Z,37.78
2022-08-29T14:02:34.667Z,37.04
2022-08-29T14:05:02.562Z,36.56
2022-08-29T14:07:31.149Z,37.09
2022-08-29T14:09:58.884Z,37.13
2022-08-29T14:12:33.600Z,36.05
2022-08-29T14:15:06.715Z,35.19
2022-08-29T14:17:40.251Z,36.00
2022-08-29T14:20:09.914Z,37.07
2022-08-29T14:22:38.161Z,35.66
2022-08-29T14:25:07.956Z,34.97
2022-08-29T14:27:35.946Z,34.74
2022-08-29T14:30:06.077Z,36.28
2022-08-29T14:32:33.593Z,36.34
2022-08-29T14:35:01.076Z,36.81
2022-08-29T14:37:28.916Z,36.22
2022-08-29T14:39:56.582Z,35.61
2022-08-29T14:42:25.741Z,36.02
2022-08-29T14:44:53.576Z,35.66
2022-08-29T14:47:21.055Z,35.29
2022-08-29T14:49:48.518Z,35.22
2022-08-29T14:52:16.610Z,35.43
2022-08-29T14:54:44.177Z,35.62
2022-08-29T14:57:12.439Z,35.53
2022-08-29T14:59:40.980Z,36.54
2022-08-29T15:02:10.013Z,36.18
2022-08-29T15:04:38.107Z,36.67
2022-08-29T15:07:12.211Z,36.75
2022-08-29T15:09:42.003Z,35.95
2022-08-29T15:12:12.095Z,36.64
2022-08-29T15:14:39.972Z,36.58
2022-08-29T15:17:08.001Z,36.36
2022-08-29T15:20:31.804Z,36.88
2022-08-29T15:22:26.547Z,36.83
2022-08-29T15:24:54.469Z,37.68
2022-08-29T15:27:27.321Z,37.38
2022-08-29T15:29:57.162Z,38.12
2022-08-29T15:32:25.191Z,37.51
2022-08-29T15:34:52.647Z,38.26
2022-08-29T15:37:20.607Z,39.31
2022-08-29T15:39:49.992Z,38.70
2022-08-29T15:42:28.600Z,38.96
2022-08-29T15:44:58.170Z,38.82
2022-08-29T15:47:26.449Z,38.66
2022-08-29T15:49:54.874Z,38.93
2022-08-29T15:52:22.372Z,38.88
2022-08-29T15:54:50.162Z,39.11
2022-08-29T15:57:17.757Z,40.09
2022-08-29T16:00:00.470Z,39.60
2022-08-29T16:02:29.033Z,39.53
2022-08-29T16:04:57.569Z,39.12
2022-08-29T16:07:29.286Z,39.82
2022-08-29T16:10:00.265Z,39.94
2022-08-29T16:12:31.415Z,40.30
2022-08-29T16:15:01.024Z,40.27
2022-08-29T16:17:31.584Z,40.29
2022-08-29T16:20:01.246Z,39.29
2022-08-29T16:22:29.516Z,40.05
2022-08-29T16:24:57.516Z,39.59
2022-08-29T16:27:26.014Z,39.06
2022-08-29T16:29:54.180Z,39.93
2022-08-29T16:32:21.967Z,41.48
2022-08-29T16:34:51.405Z,40.60
2022-08-29T16:37:19.300Z,40.55
2022-08-29T16:39:46.986Z,40.86
2022-08-29T16:42:14.959Z,40.74
2022-08-29T16:44:42.527Z,41.02
2022-08-29T16:47:11.261Z,40.91
2022-08-29T16:49:39.317Z,40.57
2022-08-29T16:52:07.346Z,40.56
2022-08-29T16:54:34.793Z,40.96
2022-08-29T16:57:02.815Z,41.15
2022-08-29T16:59:30.305Z,41.50
2022-08-29T17:01:57.878Z,42.27
2022-08-29T17:04:27.995Z,42.54
2022-08-29T17:06:56.481Z,43.11
2022-08-29T17:09:25.156Z,43.28
2022-08-29T17:11:54.271Z,43.62
2022-08-29T17:14:25.384Z,44.44
2022-08-29T17:16:54.738Z,44.95
2022-08-29T17:19:23.516Z,45.18
2022-08-29T17:21:51.245Z,45.04
2022-08-29T17:24:19.936Z,45.16
2022-08-29T17:26:49.059Z,44.11
2022-08-29T17:29:16.903Z,44.60
2022-08-29T17:31:44.769Z,44.45
2022-08-29T17:34:13.471Z,44.28
2022-08-29T17:36:43.688Z,44.38
2022-08-29T17:39:16.715Z,44.13
2022-08-29T17:41:57.964Z,44.70
2022-08-29T17:44:27.644Z,44.69
2022-08-29T17:46:57.595Z,44.62
2022-08-29T17:49:27.092Z,44.47
2022-08-29T17:51:57.535Z,44.63
2022-08-29T17:54:26.679Z,45.03
2022-08-29T17:57:02.480Z,45.01
2022-08-29T17:59:45.340Z,45.31
2022-08-29T18:02:16.710Z,45.70
2022-08-29T18:04:47.190Z,46.33
2022-08-29T18:07:16.888Z,46.72
2022-08-29T18:09:45.397Z,47.18
2022-08-29T18:12:13.452Z,47.00
2022-08-29T18:14:41.934Z,47.76
2022-08-29T18:17:10.467Z,48.83
2022-08-29T18:19:38.749Z,48.82
2022-08-29T18:22:07.515Z,48.63
2022-08-29T18:24:36.266Z,47.96
2022-08-29T18:27:04.525Z,49.77
2022-08-29T18:29:33.908Z,50.02
2022-08-29T18:32:03.022Z,49.97
2022-08-29T18:34:30.859Z,50.71
2022-08-29T18:36:58.855Z,50.52
2022-08-29T18:39:27.249Z,50.43
2022-08-29T18:41:55.027Z,51.20
2022-08-29T18:44:24.921Z,51.39
2022-08-29T18:46:52.810Z,51.48
2022-08-29T18:49:40.313Z,52.16
2022-08-29T18:52:08.369Z,53.00
2022-08-29T18:54:36.490Z,52.25
2022-08-29T18:57:07.150Z,52.43
2022-08-29T18:59:37.876Z,52.79
2022-08-29T19:02:06.765Z,53.13
2022-08-29T19:04:35.006Z,53.82
2022-08-29T19:07:02.597Z,53.37
2022-08-29T19:09:30.392Z,53.16
2022-08-29T19:12:00.514Z,53.16
2022-08-29T19:14:28.413Z,54.29
2022-08-29T19:17:00.711Z,54.03
2022-08-29T19:19:53.047Z,54.57
2022-08-29T19:22:23.193Z,54.13
2022-08-29T19:24:51.513Z,54.61
2022-08-29T19:27:41.884Z,54.63
2022-08-29T19:30:09.644Z,54.41
2022-08-29T19:32:37.539Z,54.93
2022-08-29T19:35:05.795Z,54.00
2022-08-29T19:37:33.904Z,54.19
2022-08-29T19:40:01.540Z,53.65
2022-08-29T19:42:29.991Z,53.42
2022-08-29T19:44:57.949Z,54.01
2022-08-29T19:47:26.290Z,55.04
2022-08-29T19:49:55.865Z,55.08
2022-08-29T19:52:27.000Z,56.04
2022-08-29T19:55:00.245Z,56.25
2022-08-29T19:57:28.387Z,55.19
2022-08-29T20:00:01.247Z,55.95
2022-08-29T20:02:45.959Z,56.32
2022-08-29T20:05:15.423Z,55.91
2022-08-29T20:07:45.123Z,57.17
2022-08-29T20:10:25.984Z,55.70
2022-08-29T20:13:01.968Z,56.06
2022-08-29T20:15:32.902Z,56.52
2022-08-29T20:18:01.494Z,56.99
2022-08-29T20:20:36.026Z,56.44
2022-08-29T20:23:05.264Z,56.02
2022-08-29T20:25:34.187Z,56.68
2022-08-29T20:28:01.777Z,56.24
2022-08-29T20:30:37.993Z,57.62
2022-08-29T20:33:05.602Z,57.16
2022-08-29T20:35:52.205Z,58.02
2022-08-29T20:38:19.936Z,57.33
2022-08-29T20:40:50.279Z,57.20
2022-08-29T20:43:19.411Z,57.98
2022-08-29T20:45:47.539Z,57.47
2022-08-29T20:48:16.737Z,57.60
2022-08-29T20:50:44.775Z,57.83
2022-08-29T20:53:17.803Z,57.47
2022-08-29T20:56:01.483Z,57.39
2022-08-29T20:58:30.343Z,57.61
2022-08-29T21:00:58.735Z,57.62
2022-08-29T21:03:48.572Z,57.53
2022-08-29T21:06:18.850Z,57.24
2022-08-29T21:08:47.050Z,57.35
2022-08-29T21:11:16.471Z,57.72
2022-08-29T21:13:44.346Z,57.92
2022-08-29T21:16:12.706Z,57.86
2022-08-29T21:18:40.867Z,58.18
2022-08-29T21:21:13.207Z,58.69
2022-08-29T21:23:41.678Z,58.43
2022-08-29T21:26:10.237Z,58.38
2022-08-29T21:28:38.123Z,58.75
2022-08-29T21:31:10.320Z,58.49
2022-08-29T21:33:40.336Z,59.20
2022-08-29T21:36:13.657Z,59.03
2022-08-29T21:38:41.521Z,58.92
2022-08-29T21:41:11.776Z,59.33
2022-08-29T21:43:40.088Z,59.10
2022-08-29T21:46:15.243Z,59.55
2022-08-29T21:48:43.530Z,60.16
2022-08-29T21:51:13.214Z,60.11
2022-08-29T21:53:41.766Z,60.16
2022-08-29T21:56:10.045Z,59.62
2022-08-29T21:58:37.801Z,59.65
2022-08-29T22:01:05.771Z,59.67
2022-08-29T22:03:34.093Z,59.55
2022-08-29T22:06:03.289Z,59.77
2022-08-29T22:08:31.412Z,59.84
2022-08-29T22:11:13.730Z,60.22
2022-08-29T22:13:41.538Z,60.12
2022-08-29T22:16:30.961Z,60.48
2022-08-29T22:19:08.810Z,59.96
2022-08-29T22:21:43.611Z,59.98
2022-08-29T22:24:12.587Z,60.54
2022-08-29T22:26:44.600Z,60.50
2022-08-29T22:29:16.263Z,60.42
2022-08-29T22:31:47.648Z,60.68
2022-08-29T22:34:17.708Z,60.67
2022-08-29T22:36:45.872Z,61.16
2022-08-29T22:39:13.701Z,61.08
2022-08-29T22:41:46.787Z,61.43
2022-08-29T22:47:07.040Z,61.92
2022-08-29T22:49:35.049Z,61.69
2022-08-29T22:52:02.892Z,61.99
2022-08-29T22:54:37.359Z,62.15
2022-08-29T22:57:09.166Z,62.14
2022-08-29T22:59:37.730Z,62.85
2022-08-29T23:02:10.084Z,62.43
2022-08-29T23:04:38.431Z,62.71
2022-08-29T23:07:08.297Z,62.92
2022-08-29T23:09:41.829Z,62.73
2022-08-29T23:12:13.897Z,62.75
2022-08-29T23:14:43.619Z,62.65
2022-08-29T23:17:11.903Z,63.16
2022-08-29T23:19:41.108Z,63.40
2022-08-29T23:22:10.104Z,62.87
2022-08-29T23:24:51.601Z,62.86
2022-08-29T23:27:31.140Z,62.88
2022-08-29T23:30:04.065Z,63.14
2022-08-29T23:32:31.766Z,62.79
2022-08-29T23:34:59.943Z,62.77
2022-08-29T23:37:31.199Z,62.90
2022-08-29T23:39:59.869Z,62.85
2022-08-29T23:42:27.763Z,63.04
2022-08-29T23:44:55.527Z,62.65
2022-08-29T23:47:23.573Z,62.80
2022-08-29T23:49:51.609Z,62.92
2022-08-29T23:52:19.939Z,62.70
2022-08-29T23:54:48.053Z,62.96
2022-08-29T23:57:15.717Z,62.81
